sensor_id;sensor_type;location;lat;lon;timestamp;pressure;altitude;pressure_sealevel;temperature
61595;BMP280;47397;48.194;11.632;2022-12-07T00:00:44;95911.63;;;3.05
61595;BMP280;47397;48.194;11.632;2022-12-07T00:01:46;95910.84;;;3.13
61595;BMP280;47397;48.194;11.632;2022-12-07T00:02:47;95900.81;;;3.23
61595;BMP280;47397;48.194;11.632;2022-12-07T00:03:51;95900.06;;;3.37
61595;BMP280;47397;48.194;11.632;2022-12-07T00:04:51;95907.56;;;3.34
61595;BMP280;47397;48.194;11.632;2022-12-07T00:05:52;95905.88;;;3.26
61595;BMP280;47397;48.194;11.632;2022-12-07T00:06:53;95902.53;;;3.30
61595;BMP280;47397;48.194;11.632;2022-12-07T00:07:53;95913.38;;;3.24
61595;BMP280;47397;48.194;11.632;2022-12-07T00:08:53;95905.06;;;3.33
61595;BMP280;47397;48.194;11.632;2022-12-07T00:09:54;95906.69;;;3.20
61595;BMP280;47397;48.194;11.632;2022-12-07T00:10:54;95900.78;;;3.09
61595;BMP280;47397;48.194;11.632;2022-12-07T00:11:55;95902.47;;;3.18
61595;BMP280;47397;48.194;11.632;2022-12-07T00:12:55;95906.66;;;3.14
61595;BMP280;47397;48.194;11.632;2022-12-07T00:13:58;95909.13;;;3.06
61595;BMP280;47397;48.194;11.632;2022-12-07T00:14:58;95909.03;;;2.94
61595;BMP280;47397;48.194;11.632;2022-12-07T00:16:00;95904.97;;;3.10
61595;BMP280;47397;48.194;11.632;2022-12-07T00:17:01;95896.66;;;3.25
61595;BMP280;47397;48.194;11.632;2022-12-07T00:18:01;95910.03;;;3.21
61595;BMP280;47397;48.194;11.632;2022-12-07T00:19:04;95909.13;;;3.06
61595;BMP280;47397;48.194;11.632;2022-12-07T00:20:05;95904.88;;;2.96
61595;BMP280;47397;48.194;11.632;2022-12-07T00:21:09;95903.31;;;3.15
61595;BMP280;47397;48.194;11.632;2022-12-07T00:22:10;95898.28;;;3.17
61595;BMP280;47397;48.194;11.632;2022-12-07T00:23:10;95895.72;;;3.04
61595;BMP280;47397;48.194;11.632;2022-12-07T00:24:11;95891.59;;;3.17
61595;BMP280;47397;48.194;11.632;2022-12-07T00:25:12;95893.28;;;3.18
61595;BMP280;47397;48.194;11.632;2022-12-07T00:26:14;95900.78;;;3.13
61595;BMP280;47397;48.194;11.632;2022-12-07T00:27:14;95903.31;;;3.20
61595;BMP280;47397;48.194;11.632;2022-12-07T00:28:15;95900.00;;;3.30
61595;BMP280;47397;48.194;11.632;2022-12-07T00:29:16;95895.81;;;3.29
61595;BMP280;47397;48.194;11.632;2022-12-07T00:30:17;95897.50;;;3.31
61595;BMP280;47397;48.194;11.632;2022-12-07T00:31:19;95897.44;;;3.13
61595;BMP280;47397;48.194;11.632;2022-12-07T00:32:20;95897.44;;;3.11
61595;BMP280;47397;48.194;11.632;2022-12-07T00:33:20;95894.13;;;3.25
61595;BMP280;47397;48.194;11.632;2022-12-07T00:34:22;95897.44;;;3.14
61595;BMP280;47397;48.194;11.632;2022-12-07T00:35:22;95900.75;;;3.01
61595;BMP280;47397;48.194;11.632;2022-12-07T00:36:23;95899.00;;;2.93
61595;BMP280;47397;48.194;11.632;2022-12-07T00:37:24;95895.72;;;3.00
61595;BMP280;47397;48.194;11.632;2022-12-07T00:38:27;95899.09;;;3.09
61595;BMP280;47397;48.194;11.632;2022-12-07T00:39:28;95894.06;;;3.09
61595;BMP280;47397;48.194;11.632;2022-12-07T00:40:29;95891.59;;;3.19
61595;BMP280;47397;48.194;11.632;2022-12-07T00:41:30;95889.94;;;3.25
61595;BMP280;47397;48.194;11.632;2022-12-07T00:42:30;95890.78;;;3.23
61595;BMP280;47397;48.194;11.632;2022-12-07T00:43:31;95889.09;;;3.20
61595;BMP280;47397;48.194;11.632;2022-12-07T00:44:31;95889.97;;;3.27
61595;BMP280;47397;48.194;11.632;2022-12-07T00:45:32;95895.75;;;3.13
61595;BMP280;47397;48.194;11.632;2022-12-07T00:46:32;95893.13;;;2.89
61595;BMP280;47397;48.194;11.632;2022-12-07T00:47:33;95896.47;;;2.90
61595;BMP280;47397;48.194;11.632;2022-12-07T00:48:33;95893.19;;;3.00
61595;BMP280;47397;48.194;11.632;2022-12-07T00:49:35;95899.09;;;3.09
61595;BMP280;47397;48.194;11.632;2022-12-07T00:50:36;95896.63;;;3.16
61595;BMP280;47397;48.194;11.632;2022-12-07T00:51:36;95887.41;;;3.19
61595;BMP280;47397;48.194;11.632;2022-12-07T00:52:37;95895.75;;;3.10
61595;BMP280;47397;48.194;11.632;2022-12-07T00:53:38;95886.53;;;3.09
61595;BMP280;47397;48.194;11.632;2022-12-07T00:54:39;95894.09;;;3.17
61595;BMP280;47397;48.194;11.632;2022-12-07T00:55:40;95891.59;;;3.20
61595;BMP280;47397;48.194;11.632;2022-12-07T00:56:40;95906.59;;;3.03
61595;BMP280;47397;48.194;11.632;2022-12-07T00:57:40;95900.78;;;3.12
61595;BMP280;47397;48.194;11.632;2022-12-07T00:58:41;95891.59;;;3.19
61595;BMP280;47397;48.194;11.632;2022-12-07T00:59:41;95892.44;;;3.21
61595;BMP280;47397;48.194;11.632;2022-12-07T01:00:42;95898.25;;;3.04
61595;BMP280;47397;48.194;11.632;2022-12-07T01:01:43;95886.56;;;3.19
61595;BMP280;47397;48.194;11.632;2022-12-07T01:02:43;95901.59;;;3.03
61595;BMP280;47397;48.194;11.632;2022-12-07T01:03:44;95894.91;;;3.07
61595;BMP280;47397;48.194;11.632;2022-12-07T01:04:46;95889.94;;;3.22
61595;BMP280;47397;48.194;11.632;2022-12-07T01:05:50;95888.28;;;3.29
61595;BMP280;47397;48.194;11.632;2022-12-07T01:06:51;95889.97;;;3.27
61595;BMP280;47397;48.194;11.632;2022-12-07T01:07:51;95890.75;;;3.13
61595;BMP280;47397;48.194;11.632;2022-12-07T01:08:52;95884.06;;;3.22
61595;BMP280;47397;48.194;11.632;2022-12-07T01:09:53;95881.56;;;3.19
61595;BMP280;47397;48.194;11.632;2022-12-07T01:10:58;95892.44;;;3.21
61595;BMP280;47397;48.194;11.632;2022-12-07T01:11:59;95889.94;;;3.21
61595;BMP280;47397;48.194;11.632;2022-12-07T01:12:59;95885.75;;;3.20
61595;BMP280;47397;48.194;11.632;2022-12-07T01:14:00;95883.28;;;3.29
61595;BMP280;47397;48.194;11.632;2022-12-07T01:15:00;95894.16;;;3.28
61595;BMP280;47397;48.194;11.632;2022-12-07T01:16:03;95891.63;;;3.26
61595;BMP280;47397;48.194;11.632;2022-12-07T01:17:04;95893.31;;;3.24
61595;BMP280;47397;48.194;11.632;2022-12-07T01:18:04;95891.59;;;3.20
61595;BMP280;47397;48.194;11.632;2022-12-07T01:19:05;95895.00;;;3.28
61595;BMP280;47397;48.194;11.632;2022-12-07T01:20:07;95885.78;;;3.30
61595;BMP280;47397;48.194;11.632;2022-12-07T01:21:11;95891.56;;;3.12
61595;BMP280;47397;48.194;11.632;2022-12-07T01:22:11;95894.09;;;3.16
61595;BMP280;47397;48.194;11.632;2022-12-07T01:23:12;95893.28;;;3.20
61595;BMP280;47397;48.194;11.632;2022-12-07T01:24:12;95891.63;;;3.25
61595;BMP280;47397;48.194;11.632;2022-12-07T01:25:13;95889.06;;;3.12
61595;BMP280;47397;48.194;11.632;2022-12-07T01:26:16;95898.34;;;3.27
61595;BMP280;47397;48.194;11.632;2022-12-07T01:27:16;95886.59;;;3.25
61595;BMP280;47397;48.194;11.632;2022-12-07T01:28:17;95889.94;;;3.19
61595;BMP280;47397;48.194;11.632;2022-12-07T01:29:17;95882.41;;;3.27
61595;BMP280;47397;48.194;11.632;2022-12-07T01:30:17;95895.81;;;3.23
61595;BMP280;47397;48.194;11.632;2022-12-07T01:31:19;95893.31;;;3.26
61595;BMP280;47397;48.194;11.632;2022-12-07T01:32:20;95889.97;;;3.28
61595;BMP280;47397;48.194;11.632;2022-12-07T01:33:20;95894.91;;;3.05
61595;BMP280;47397;48.194;11.632;2022-12-07T01:34:21;95899.13;;;3.16
61595;BMP280;47397;48.194;11.632;2022-12-07T01:35:23;95893.22;;;3.04
61595;BMP280;47397;48.194;11.632;2022-12-07T01:36:25;95894.91;;;3.08
61595;BMP280;47397;48.194;11.632;2022-12-07T01:37:26;95888.28;;;3.23
61595;BMP280;47397;48.194;11.632;2022-12-07T01:38:27;95888.25;;;3.18
61595;BMP280;47397;48.194;11.632;2022-12-07T01:39:27;95893.31;;;3.27
61595;BMP280;47397;48.194;11.632;2022-12-07T01:40:27;95893.28;;;3.23
61595;BMP280;47397;48.194;11.632;2022-12-07T01:41:30;95888.28;;;3.29
61595;BMP280;47397;48.194;11.632;2022-12-07T01:42:30;95897.44;;;3.10
61595;BMP280;47397;48.194;11.632;2022-12-07T01:43:33;95894.09;;;3.12
61595;BMP280;47397;48.194;11.632;2022-12-07T01:46:04;95884.09;;;3.28
61595;BMP280;47397;48.194;11.632;2022-12-07T01:47:04;95892.47;;;3.24
61595;BMP280;47397;48.194;11.632;2022-12-07T01:48:06;95889.94;;;3.21
61595;BMP280;47397;48.194;11.632;2022-12-07T01:49:11;95892.44;;;3.22
61595;BMP280;47397;48.194;11.632;2022-12-07T01:50:13;95894.03;;;3.00
61595;BMP280;47397;48.194;11.632;2022-12-07T01:51:16;95897.41;;;3.05
61595;BMP280;47397;48.194;11.632;2022-12-07T01:52:25;95899.06;;;3.00
61595;BMP280;47397;48.194;11.632;2022-12-07T01:53:29;95891.53;;;3.03
61595;BMP280;47397;48.194;11.632;2022-12-07T01:54:31;95894.09;;;3.12
61595;BMP280;47397;48.194;11.632;2022-12-07T01:55:33;95887.41;;;3.14
61595;BMP280;47397;48.194;11.632;2022-12-07T01:56:36;95889.94;;;3.25
61595;BMP280;47397;48.194;11.632;2022-12-07T01:57:40;95890.78;;;3.24
61595;BMP280;47397;48.194;11.632;2022-12-07T01:58:41;95887.44;;;3.27
61595;BMP280;47397;48.194;11.632;2022-12-07T01:59:42;95884.09;;;3.28
61595;BMP280;47397;48.194;11.632;2022-12-07T02:00:43;95882.41;;;3.22
61595;BMP280;47397;48.194;11.632;2022-12-07T02:01:43;95882.34;;;3.05
61595;BMP280;47397;48.194;11.632;2022-12-07T02:02:48;95887.34;;;3.02
61595;BMP280;47397;48.194;11.632;2022-12-07T02:03:50;95882.38;;;3.11
61595;BMP280;47397;48.194;11.632;2022-12-07T02:04:51;95887.41;;;3.16
61595;BMP280;47397;48.194;11.632;2022-12-07T02:05:53;95888.28;;;3.26
61595;BMP280;47397;48.194;11.632;2022-12-07T02:06:55;95886.59;;;3.22
61595;BMP280;47397;48.194;11.632;2022-12-07T02:07:57;95879.03;;;3.16
61595;BMP280;47397;48.194;11.632;2022-12-07T02:08:58;95884.91;;;3.21
61595;BMP280;47397;48.194;11.632;2022-12-07T02:10:12;95891.53;;;3.03
61595;BMP280;47397;48.194;11.632;2022-12-07T02:11:13;95882.34;;;3.08
61595;BMP280;47397;48.194;11.632;2022-12-07T02:12:13;95875.69;;;3.17
61595;BMP280;47397;48.194;11.632;2022-12-07T02:13:16;95874.00;;;3.16
61595;BMP280;47397;48.194;11.632;2022-12-07T02:14:16;95874.88;;;3.22
61595;BMP280;47397;48.194;11.632;2022-12-07T02:15:18;95879.03;;;3.14
61595;BMP280;47397;48.194;11.632;2022-12-07T02:16:25;95879.03;;;3.17
61595;BMP280;47397;48.194;11.632;2022-12-07T02:17:35;95872.31;;;3.07
61595;BMP280;47397;48.194;11.632;2022-12-07T02:18:47;95875.66;;;3.12
61595;BMP280;47397;48.194;11.632;2022-12-07T02:20:08;95873.03;;;2.91
61595;BMP280;47397;48.194;11.632;2022-12-07T02:21:13;95870.66;;;3.12
61595;BMP280;47397;48.194;11.632;2022-12-07T02:22:32;95872.34;;;3.18
61595;BMP280;47397;48.194;11.632;2022-12-07T02:23:40;95879.06;;;3.23
61595;BMP280;47397;48.194;11.632;2022-12-07T02:24:53;95877.41;;;3.30
61595;BMP280;47397;48.194;11.632;2022-12-07T02:26:07;95870.63;;;3.04
61595;BMP280;47397;48.194;11.632;2022-12-07T02:27:22;95869.78;;;3.04
61595;BMP280;47397;48.194;11.632;2022-12-07T02:28:29;95870.69;;;3.20
61595;BMP280;47397;48.194;11.632;2022-12-07T02:29:35;95867.31;;;3.14
61595;BMP280;47397;48.194;11.632;2022-12-07T02:30:42;95871.50;;;3.17
61595;BMP280;47397;48.194;11.632;2022-12-07T02:31:49;95867.28;;;3.08
61595;BMP280;47397;48.194;11.632;2022-12-07T02:32:55;95868.16;;;3.15
61595;BMP280;47397;48.194;11.632;2022-12-07T02:34:00;95864.78;;;3.13
61595;BMP280;47397;48.194;11.632;2022-12-07T02:35:06;95868.88;;;2.94
61595;BMP280;47397;48.194;11.632;2022-12-07T02:36:11;95864.75;;;3.02
61595;BMP280;47397;48.194;11.632;2022-12-07T02:37:19;95870.63;;;3.07
61595;BMP280;47397;48.194;11.632;2022-12-07T02:38:26;95866.47;;;3.11
61595;BMP280;47397;48.194;11.632;2022-12-07T02:39:34;95870.63;;;3.03
61595;BMP280;47397;48.194;11.632;2022-12-07T02:40:40;95875.63;;;3.00
61595;BMP280;47397;48.194;11.632;2022-12-07T02:41:46;95865.63;;;3.10
61595;BMP280;47397;48.194;11.632;2022-12-07T02:42:55;95864.78;;;3.13
61595;BMP280;47397;48.194;11.632;2022-12-07T02:43:59;95866.47;;;3.16
61595;BMP280;47397;48.194;11.632;2022-12-07T02:45:03;95863.13;;;3.13
61595;BMP280;47397;48.194;11.632;2022-12-07T02:46:08;95866.47;;;3.16
61595;BMP280;47397;48.194;11.632;2022-12-07T02:47:12;95864.81;;;3.16
61595;BMP280;47397;48.194;11.632;2022-12-07T02:48:16;95861.44;;;3.12
61595;BMP280;47397;48.194;11.632;2022-12-07T02:49:17;95866.47;;;3.14
61595;BMP280;47397;48.194;11.632;2022-12-07T02:50:19;95868.97;;;3.08
61595;BMP280;47397;48.194;11.632;2022-12-07T02:51:21;95863.09;;;3.04
61595;BMP280;47397;48.194;11.632;2022-12-07T02:52:22;95860.59;;;3.10
61595;BMP280;47397;48.194;11.632;2022-12-07T02:53:30;95866.47;;;3.11
61595;BMP280;47397;48.194;11.632;2022-12-07T02:54:31;95874.78;;;2.98
61595;BMP280;47397;48.194;11.632;2022-12-07T02:55:37;95862.28;;;3.08
61595;BMP280;47397;48.194;11.632;2022-12-07T02:56:46;95858.91;;;3.09
61595;BMP280;47397;48.194;11.632;2022-12-07T02:57:57;95866.47;;;3.09
61595;BMP280;47397;48.194;11.632;2022-12-07T02:59:10;95863.97;;;3.12
61595;BMP280;47397;48.194;11.632;2022-12-07T03:00:16;95863.09;;;3.04
61595;BMP280;47397;48.194;11.632;2022-12-07T03:01:26;95867.31;;;3.11
61595;BMP280;47397;48.194;11.632;2022-12-07T03:02:37;95860.56;;;3.01
61595;BMP280;47397;48.194;11.632;2022-12-07T03:03:39;95858.09;;;3.09
61595;BMP280;47397;48.194;11.632;2022-12-07T03:04:46;95858.09;;;3.12
61595;BMP280;47397;48.194;11.632;2022-12-07T03:05:55;95857.28;;;3.21
61595;BMP280;47397;48.194;11.632;2022-12-07T03:07:03;95867.34;;;3.25
61595;BMP280;47397;48.194;11.632;2022-12-07T03:08:12;95866.47;;;3.14
61595;BMP280;47397;48.194;11.632;2022-12-07T03:09:15;95865.66;;;3.17
61595;BMP280;47397;48.194;11.632;2022-12-07T03:10:24;95862.25;;;3.07
61595;BMP280;47397;48.194;11.632;2022-12-07T03:11:40;95865.50;;;2.89
61595;BMP280;47397;48.194;11.632;2022-12-07T03:12:44;95860.50;;;2.97
61595;BMP280;47397;48.194;11.632;2022-12-07T03:13:48;95858.81;;;2.94
61595;BMP280;47397;48.194;11.632;2022-12-07T03:14:56;95867.22;;;2.96
61595;BMP280;47397;48.194;11.632;2022-12-07T03:16:02;95861.41;;;3.06
61595;BMP280;47397;48.194;11.632;2022-12-07T03:17:09;95864.75;;;2.99
61595;BMP280;47397;48.194;11.632;2022-12-07T03:18:13;95858.06;;;3.06
61595;BMP280;47397;48.194;11.632;2022-12-07T03:19:16;95865.59;;;3.04
61595;BMP280;47397;48.194;11.632;2022-12-07T03:20:21;95861.44;;;3.09
61595;BMP280;47397;48.194;11.632;2022-12-07T03:21:25;95861.44;;;3.14
61595;BMP280;47397;48.194;11.632;2022-12-07T03:22:28;95861.44;;;3.08
61595;BMP280;47397;48.194;11.632;2022-12-07T03:23:33;95858.91;;;3.06
61595;BMP280;47397;48.194;11.632;2022-12-07T03:24:38;95858.13;;;3.24
61595;BMP280;47397;48.194;11.632;2022-12-07T03:25:40;95854.75;;;3.18
61595;BMP280;47397;48.194;11.632;2022-12-07T03:26:43;95856.41;;;3.12
61595;BMP280;47397;48.194;11.632;2022-12-07T03:27:49;95857.25;;;3.11
61595;BMP280;47397;48.194;11.632;2022-12-07T03:28:53;95853.88;;;3.06
61595;BMP280;47397;48.194;11.632;2022-12-07T03:29:59;95867.28;;;3.05
61595;BMP280;47397;48.194;11.632;2022-12-07T03:31:05;95858.94;;;3.14
61595;BMP280;47397;48.194;11.632;2022-12-07T03:32:11;95854.75;;;3.10
61595;BMP280;47397;48.194;11.632;2022-12-07T03:33:18;95858.03;;;3.00
61595;BMP280;47397;48.194;11.632;2022-12-07T03:34:24;95864.75;;;3.04
61595;BMP280;47397;48.194;11.632;2022-12-07T03:35:29;95859.75;;;3.08
61595;BMP280;47397;48.194;11.632;2022-12-07T03:36:35;95858.09;;;3.10
61595;BMP280;47397;48.194;11.632;2022-12-07T03:37:40;95851.38;;;3.03
61595;BMP280;47397;48.194;11.632;2022-12-07T03:38:45;95849.72;;;3.14
61595;BMP280;47397;48.194;11.632;2022-12-07T03:39:56;95853.09;;;3.17
61595;BMP280;47397;48.194;11.632;2022-12-07T03:41:00;95855.53;;;3.01
61595;BMP280;47397;48.194;11.632;2022-12-07T03:42:03;95858.84;;;2.96
61595;BMP280;47397;48.194;11.632;2022-12-07T03:43:05;95853.81;;;2.97
61595;BMP280;47397;48.194;11.632;2022-12-07T03:44:07;95858.00;;;2.94
61595;BMP280;47397;48.194;11.632;2022-12-07T03:45:08;95848.81;;;2.97
61595;BMP280;47397;48.194;11.632;2022-12-07T03:46:17;95851.34;;;2.99
61595;BMP280;47397;48.194;11.632;2022-12-07T03:47:24;95848.03;;;3.06
61595;BMP280;47397;48.194;11.632;2022-12-07T03:48:30;95845.50;;;3.00
61595;BMP280;47397;48.194;11.632;2022-12-07T03:49:37;95855.47;;;2.89
61595;BMP280;47397;48.194;11.632;2022-12-07T03:50:45;95863.75;;;2.73
61595;BMP280;47397;48.194;11.632;2022-12-07T03:51:53;95852.94;;;2.85
61595;BMP280;47397;48.194;11.632;2022-12-07T03:52:58;95853.88;;;3.03
61595;BMP280;47397;48.194;11.632;2022-12-07T03:54:02;95847.09;;;2.87
61595;BMP280;47397;48.194;11.632;2022-12-07T03:55:09;95852.97;;;2.97
61595;BMP280;47397;48.194;11.632;2022-12-07T03:56:10;95854.66;;;2.96
61595;BMP280;47397;48.194;11.632;2022-12-07T03:57:12;95852.94;;;2.89
61595;BMP280;47397;48.194;11.632;2022-12-07T03:58:17;95849.63;;;2.96
61595;BMP280;47397;48.194;11.632;2022-12-07T03:59:19;95844.69;;;3.07
61595;BMP280;47397;48.194;11.632;2022-12-07T04:00:20;95847.94;;;2.94
61595;BMP280;47397;48.194;11.632;2022-12-07T04:01:22;95848.03;;;3.09
61595;BMP280;47397;48.194;11.632;2022-12-07T04:02:23;95843.03;;;3.09
61595;BMP280;47397;48.194;11.632;2022-12-07T04:03:25;95842.94;;;2.97
61595;BMP280;47397;48.194;11.632;2022-12-07T04:04:25;95841.25;;;2.94
61595;BMP280;47397;48.194;11.632;2022-12-07T04:05:26;95841.34;;;3.06
61595;BMP280;47397;48.194;11.632;2022-12-07T04:06:26;95839.66;;;3.04
61595;BMP280;47397;48.194;11.632;2022-12-07T04:07:27;95841.34;;;3.06
61595;BMP280;47397;48.194;11.632;2022-12-07T04:08:27;95838.00;;;3.09
61595;BMP280;47397;48.194;11.632;2022-12-07T04:09:28;95845.44;;;2.95
61595;BMP280;47397;48.194;11.632;2022-12-07T04:10:28;95840.47;;;3.01
61595;BMP280;47397;48.194;11.632;2022-12-07T04:11:29;95849.69;;;2.98
61595;BMP280;47397;48.194;11.632;2022-12-07T04:12:29;95841.31;;;2.99
61595;BMP280;47397;48.194;11.632;2022-12-07T04:13:30;95844.59;;;2.92
61595;BMP280;47397;48.194;11.632;2022-12-07T04:14:30;95845.50;;;2.98
61595;BMP280;47397;48.194;11.632;2022-12-07T04:15:30;95839.56;;;2.92
61595;BMP280;47397;48.194;11.632;2022-12-07T04:16:32;95853.75;;;2.80
61595;BMP280;47397;48.194;11.632;2022-12-07T04:17:33;95844.53;;;2.78
61595;BMP280;47397;48.194;11.632;2022-12-07T04:18:33;95845.38;;;2.80
61595;BMP280;47397;48.194;11.632;2022-12-07T04:19:34;95846.25;;;2.88
61595;BMP280;47397;48.194;11.632;2022-12-07T04:20:34;95848.84;;;2.99
61595;BMP280;47397;48.194;11.632;2022-12-07T04:21:35;95852.19;;;3.01
61595;BMP280;47397;48.194;11.632;2022-12-07T04:22:35;95847.22;;;3.10
61595;BMP280;47397;48.194;11.632;2022-12-07T04:23:36;95848.03;;;3.07
61595;BMP280;47397;48.194;11.632;2022-12-07T04:24:36;95849.63;;;2.96
61595;BMP280;47397;48.194;11.632;2022-12-07T04:25:37;95847.16;;;2.98
61595;BMP280;47397;48.194;11.632;2022-12-07T04:26:37;95853.03;;;3.04
61595;BMP280;47397;48.194;11.632;2022-12-07T04:27:37;95840.50;;;3.03
61595;BMP280;47397;48.194;11.632;2022-12-07T04:28:38;95844.66;;;3.02
61595;BMP280;47397;48.194;11.632;2022-12-07T04:29:38;95843.81;;;2.99
61595;BMP280;47397;48.194;11.632;2022-12-07T04:30:39;95848.84;;;3.00
61595;BMP280;47397;48.194;11.632;2022-12-07T04:31:41;95842.06;;;2.90
61595;BMP280;47397;48.194;11.632;2022-12-07T04:32:41;95849.59;;;2.87
61595;BMP280;47397;48.194;11.632;2022-12-07T04:33:42;95852.16;;;2.96
61595;BMP280;47397;48.194;11.632;2022-12-07T04:34:42;95848.03;;;3.07
61595;BMP280;47397;48.194;11.632;2022-12-07T04:35:43;95846.38;;;3.08
61595;BMP280;47397;48.194;11.632;2022-12-07T04:36:44;95848.00;;;3.03
61595;BMP280;47397;48.194;11.632;2022-12-07T04:37:44;95848.88;;;3.06
61595;BMP280;47397;48.194;11.632;2022-12-07T04:38:45;95847.16;;;2.98
61595;BMP280;47397;48.194;11.632;2022-12-07T04:39:45;95840.50;;;3.07
61595;BMP280;47397;48.194;11.632;2022-12-07T04:40:45;95845.44;;;2.91
61595;BMP280;47397;48.194;11.632;2022-12-07T04:41:46;95849.59;;;2.84
61595;BMP280;47397;48.194;11.632;2022-12-07T04:42:46;95849.56;;;2.82
61595;BMP280;47397;48.194;11.632;2022-12-07T04:43:47;95852.72;;;2.53
61595;BMP280;47397;48.194;11.632;2022-12-07T04:44:47;95854.53;;;2.73
61595;BMP280;47397;48.194;11.632;2022-12-07T04:45:48;95848.72;;;2.80
61595;BMP280;47397;48.194;11.632;2022-12-07T04:46:50;95847.09;;;2.90
61595;BMP280;47397;48.194;11.632;2022-12-07T04:47:50;95842.03;;;2.82
61595;BMP280;47397;48.194;11.632;2022-12-07T04:48:51;95848.72;;;2.77
61595;BMP280;47397;48.194;11.632;2022-12-07T04:49:52;95846.28;;;2.94
61595;BMP280;47397;48.194;11.632;2022-12-07T04:50:52;95847.91;;;2.83
61595;BMP280;47397;48.194;11.632;2022-12-07T04:51:53;95852.06;;;2.76
61595;BMP280;47397;48.194;11.632;2022-12-07T04:52:53;95854.56;;;2.75
61595;BMP280;47397;48.194;11.632;2022-12-07T04:53:55;95842.06;;;2.89
61595;BMP280;47397;48.194;11.632;2022-12-07T04:54:55;95843.75;;;2.91
61595;BMP280;47397;48.194;11.632;2022-12-07T04:55:56;95842.06;;;2.87
61595;BMP280;47397;48.194;11.632;2022-12-07T04:56:56;95847.09;;;2.92
61595;BMP280;47397;48.194;11.632;2022-12-07T04:57:56;95847.06;;;2.86
61595;BMP280;47397;48.194;11.632;2022-12-07T04:58:57;95848.72;;;2.79
61595;BMP280;47397;48.194;11.632;2022-12-07T04:59:57;95851.19;;;2.70
61595;BMP280;47397;48.194;11.632;2022-12-07T05:00:58;95847.06;;;2.86
61595;BMP280;47397;48.194;11.632;2022-12-07T05:01:59;95850.50;;;2.98
61595;BMP280;47397;48.194;11.632;2022-12-07T05:03:00;95857.13;;;2.87
61595;BMP280;47397;48.194;11.632;2022-12-07T05:04:00;95848.78;;;2.94
61595;BMP280;47397;48.194;11.632;2022-12-07T05:05:01;95844.59;;;2.90
61595;BMP280;47397;48.194;11.632;2022-12-07T05:06:02;95846.97;;;2.63
61595;BMP280;47397;48.194;11.632;2022-12-07T05:07:02;95843.69;;;2.77
61595;BMP280;47397;48.194;11.632;2022-12-07T05:08:03;95845.41;;;2.88
61595;BMP280;47397;48.194;11.632;2022-12-07T05:09:04;95844.56;;;2.87
61595;BMP280;47397;48.194;11.632;2022-12-07T05:10:05;95853.78;;;2.85
61595;BMP280;47397;48.194;11.632;2022-12-07T05:11:06;95848.75;;;2.85
61595;BMP280;47397;48.194;11.632;2022-12-07T05:12:07;95853.59;;;2.55
61595;BMP280;47397;48.194;11.632;2022-12-07T05:13:08;95857.88;;;2.72
61595;BMP280;47397;48.194;11.632;2022-12-07T05:14:11;95848.75;;;2.88
61595;BMP280;47397;48.194;11.632;2022-12-07T05:15:12;95852.09;;;2.86
61595;BMP280;47397;48.194;11.632;2022-12-07T05:16:13;95848.78;;;2.94
61595;BMP280;47397;48.194;11.632;2022-12-07T05:17:15;95848.75;;;2.85
61595;BMP280;47397;48.194;11.632;2022-12-07T05:18:15;95847.09;;;2.87
61595;BMP280;47397;48.194;11.632;2022-12-07T05:19:16;95853.03;;;2.98
61595;BMP280;47397;48.194;11.632;2022-12-07T05:20:17;95849.63;;;2.93
61595;BMP280;47397;48.194;11.632;2022-12-07T05:21:18;95847.09;;;2.89
61595;BMP280;47397;48.194;11.632;2022-12-07T05:22:18;95847.88;;;2.75
61595;BMP280;47397;48.194;11.632;2022-12-07T05:23:18;95857.06;;;2.75
61595;BMP280;47397;48.194;11.632;2022-12-07T05:24:19;95845.41;;;2.83
61595;BMP280;47397;48.194;11.632;2022-12-07T05:25:19;95850.34;;;2.71
61595;BMP280;47397;48.194;11.632;2022-12-07T05:26:20;95847.03;;;2.76
61595;BMP280;47397;48.194;11.632;2022-12-07T05:27:20;95838.66;;;2.73
61595;BMP280;47397;48.194;11.632;2022-12-07T05:28:21;95843.69;;;2.77
61595;BMP280;47397;48.194;11.632;2022-12-07T05:29:21;95840.38;;;2.83
61595;BMP280;47397;48.194;11.632;2022-12-07T05:30:22;95842.06;;;2.90
61595;BMP280;47397;48.194;11.632;2022-12-07T05:31:23;95838.72;;;2.85
61595;BMP280;47397;48.194;11.632;2022-12-07T05:32:25;95840.41;;;2.91
61595;BMP280;47397;48.194;11.632;2022-12-07T05:33:26;95844.59;;;2.89
61595;BMP280;47397;48.194;11.632;2022-12-07T05:34:26;95848.75;;;2.85
61595;BMP280;47397;48.194;11.632;2022-12-07T05:35:27;95839.56;;;2.93
61595;BMP280;47397;48.194;11.632;2022-12-07T05:36:27;95843.75;;;2.90
61595;BMP280;47397;48.194;11.632;2022-12-07T05:37:27;95842.06;;;2.87
61595;BMP280;47397;48.194;11.632;2022-12-07T05:38:28;95848.72;;;2.79
61595;BMP280;47397;48.194;11.632;2022-12-07T05:39:28;95852.88;;;2.72
61595;BMP280;47397;48.194;11.632;2022-12-07T05:40:29;95849.41;;;2.55
61595;BMP280;47397;48.194;11.632;2022-12-07T05:41:29;95855.34;;;2.65
61595;BMP280;47397;48.194;11.632;2022-12-07T05:42:29;95850.38;;;2.78
61595;BMP280;47397;48.194;11.632;2022-12-07T05:43:30;95852.88;;;2.71
61595;BMP280;47397;48.194;11.632;2022-12-07T05:44:31;95843.50;;;2.48
61595;BMP280;47397;48.194;11.632;2022-12-07T05:45:31;95847.84;;;2.71
61595;BMP280;47397;48.194;11.632;2022-12-07T05:46:32;95841.19;;;2.80
61595;BMP280;47397;48.194;11.632;2022-12-07T05:47:34;95846.91;;;2.58
61595;BMP280;47397;48.194;11.632;2022-12-07T05:48:34;95844.50;;;2.73
61595;BMP280;47397;48.194;11.632;2022-12-07T05:49:35;95852.00;;;2.67
61595;BMP280;47397;48.194;11.632;2022-12-07T05:50:35;95851.91;;;2.57
61595;BMP280;47397;48.194;11.632;2022-12-07T05:51:35;95847.84;;;2.71
61595;BMP280;47397;48.194;11.632;2022-12-07T05:52:36;95852.03;;;2.70
61595;BMP280;47397;48.194;11.632;2022-12-07T05:53:36;95844.53;;;2.75
61595;BMP280;47397;48.194;11.632;2022-12-07T05:54:37;95847.88;;;2.77
61595;BMP280;47397;48.194;11.632;2022-12-07T05:55:37;95847.03;;;2.75
61595;BMP280;47397;48.194;11.632;2022-12-07T05:56:38;95850.13;;;2.34
61595;BMP280;47397;48.194;11.632;2022-12-07T05:57:38;95850.97;;;2.38
61595;BMP280;47397;48.194;11.632;2022-12-07T05:58:38;95844.28;;;2.35
61595;BMP280;47397;48.194;11.632;2022-12-07T05:59:39;95850.22;;;2.53
61595;BMP280;47397;48.194;11.632;2022-12-07T06:00:39;95849.41;;;2.57
61595;BMP280;47397;48.194;11.632;2022-12-07T06:01:40;95845.31;;;2.66